John James Audubon — WDE8037 — position and weather

sailwx.info

Track history (hours):
 
Tides and Currents Weather Stations Pressure Air Temp Water Temp Dewpoint Dewpoint Depression Visibility Wind Speed Wind Dir Waves Ship Positions

John James Audubon

More information available from US FCC via Universal Licensing System and Coast Guard Vessel Documentation Center.

Last reported at 2014-Jul-29 21:04 UTC. Time now 2014-Jul-29 22:58 UTC.
Position N 40°44' W 074°01'.

Length 37 m.

Type: Ship. MMSI: 367400770.

Date/timePositionNaut miles runAvg speedWind from/ knotsBaromVisibWave heightAir tempDewpointWater temp
2014-Jul-29 21:04N 40°44' W 074°01'2 3.3
2014-Jul-29 20:33N 40°42' W 074°00'0 0.0
2014-Jul-29 19:33N 40°42' W 074°00'0 0.0
2014-Jul-29 18:33N 40°42' W 074°00'2 1.9
2014-Jul-29 17:33N 40°41' W 074°02'2 2.0
2014-Jul-29 16:33N 40°42' W 074°00'0 0.1
2014-Jul-29 15:33N 40°42' W 074°00'2 1.8
2014-Jul-29 14:33N 40°41' W 074°02'2 1.8
2014-Jul-29 13:33N 40°43' W 074°01'1 0.1
2014-Jul-28 19:33N 40°42' W 074°00'0 0.5
2014-Jul-28 18:33N 40°42' W 074°01'1 0.8
2014-Jul-28 17:33N 40°42' W 074°02'1 1.3
2014-Jul-28 16:33N 40°42' W 074°00'0 0.0
2014-Jul-28 15:33N 40°42' W 074°00'2 1.7
2014-Jul-28 14:33N 40°41' W 074°02'1 1.1
2014-Jul-28 13:33N 40°42' W 074°01'2 0.2
2014-Jul-28 01:33N 40°44' W 074°01'2 2.4
2014-Jul-28 00:34N 40°42' W 074°02'0 0.1
2014-Jul-27 19:33N 40°42' W 074°01'1 0.6
2014-Jul-27 18:33N 40°42' W 074°00'2 1.7
2014-Jul-27 17:33N 40°41' W 074°02'2 1.8
2014-Jul-27 16:33N 40°42' W 074°00'0 0.1
2014-Jul-27 15:32N 40°42' W 074°00'1 1.3
2014-Jul-27 14:33N 40°42' W 074°02'1 1.2
2014-Jul-27 13:33N 40°42' W 074°00'0 0.0
2014-Jul-27 04:34N 40°42' W 074°00'0 0.0
2014-Jul-27 03:34N 40°42' W 074°00'3 3.2
2014-Jul-27 02:30N 40°46' W 074°01'3 1.4
2014-Jul-27 00:05N 40°42' W 074°00'1 1.3
2014-Jul-26 23:33N 40°42' W 073°59'2 1.9
2014-Jul-26 22:33N 40°44' W 074°01'2 1.6
2014-Jul-26 21:33N 40°42' W 074°00'1 0.3
2014-Jul-26 18:33N 40°43' W 074°01'1 1.5
2014-Jul-26 17:33N 40°41' W 074°02'2 1.8
2014-Jul-26 16:33N 40°42' W 074°00'0 0.1
2014-Jul-26 15:33N 40°42' W 074°00'1 1.2
2014-Jul-26 14:33N 40°42' W 074°02'1 0.7
2014-Jul-26 13:33N 40°42' W 074°01'2 0.2
2014-Jul-26 05:06N 40°44' W 074°01'2 3.1
2014-Jul-26 04:33N 40°42' W 074°00'1 1.1
2014-Jul-26 03:33N 40°43' W 074°01'1 1.3
2014-Jul-26 02:33N 40°42' W 073°60'1 0.7
2014-Jul-26 01:33N 40°42' W 073°59'1 1.1
2014-Jul-26 00:33N 40°42' W 074°00'1 1.3
2014-Jul-25 23:33N 40°42' W 074°02'3 3.3
2014-Jul-25 22:33N 40°44' W 073°58'2 2.0
2014-Jul-25 21:32N 40°42' W 074°00'0 0.0
2014-Jul-25 20:33N 40°42' W 074°00'0 0.0
2014-Jul-25 19:30N 40°42' W 074°00'0 0.0
2014-Jul-25 18:33N 40°42' W 074°00'1 0.8
2014-Jul-25 17:33N 40°42' W 074°01'1 0.8
2014-Jul-25 16:33N 40°42' W 074°00'0 0.2
2014-Jul-25 15:33N 40°42' W 074°00'2 1.5
2014-Jul-25 14:33N 40°41' W 074°02'1 1.4
2014-Jul-25 13:33N 40°43' W 074°01'1 0.1
2014-Jul-24 22:33N 40°44' W 074°01'3 2.5
2014-Jul-24 21:33N 40°41' W 074°02'2 2.0
2014-Jul-24 20:33N 40°42' W 074°00'0 0.1
2014-Jul-24 19:33N 40°42' W 074°00'1 1.3
2014-Jul-24 18:33N 40°42' W 074°02'1 1.3
2014-Jul-24 17:33N 40°42' W 074°00'0 0.1
2014-Jul-24 16:33N 40°42' W 074°00'1 1.1
2014-Jul-24 15:33N 40°42' W 074°01'1 1.1
2014-Jul-24 14:33N 40°42' W 074°00'0 0.0
2014-Jul-24 13:33N 40°42' W 074°00'0 0.0
2014-Jul-23 19:33N 40°42' W 074°00'0 0.0
2014-Jul-23 18:33N 40°42' W 074°00'2 1.7
2014-Jul-23 17:33N 40°41' W 074°02'2 1.7
2014-Jul-23 16:33N 40°42' W 074°00'0 0.0
2014-Jul-23 15:33N 40°42' W 074°00'2 2.1
2014-Jul-23 14:33N 40°41' W 074°03'2 2.1
2014-Jul-23 13:33N 40°42' W 074°00'3 0.2
2014-Jul-23 02:33N 40°45' W 074°01'3 3.2
2014-Jul-23 01:33N 40°42' W 074°02'2 0.3
2014-Jul-22 19:33N 40°42' W 074°00'1 1.0
2014-Jul-22 18:33N 40°42' W 074°01'1 1.0
2014-Jul-22 17:33N 40°42' W 074°00'0 0.0
2014-Jul-22 16:33N 40°42' W 074°00'1 0.9
2014-Jul-22 15:33N 40°42' W 074°01'1 0.9
2014-Jul-22 14:33N 40°42' W 074°00'0 0.0
2014-Jul-22 13:33N 40°42' W 074°00'2 0.1
2014-Jul-21 22:27N 40°44' W 074°01'2 2.7
2014-Jul-21 21:33N 40°41' W 074°02'2 1.8
2014-Jul-21 20:33N 40°42' W 074°00'0 0.0
2014-Jul-21 20:18N 40°42' W 074°00'2 2.7
2014-Jul-21 19:33N 40°41' W 074°02'2 2.0
2014-Jul-21 18:33N 40°42' W 074°00'0 0.3
2014-Jul-21 17:33N 40°42' W 074°00'0 0.2
2014-Jul-21 16:33N 40°42' W 074°01'1 0.5
2014-Jul-21 15:33N 40°42' W 074°00'2 0.1
2014-Jul-21 01:33N 40°44' W 074°01'2 2.4
2014-Jul-21 00:33N 40°42' W 074°02'2 0.3
2014-Jul-20 19:33N 40°42' W 074°00'0 0.0
2014-Jul-20 18:31N 40°42' W 074°00'1 1.6
2014-Jul-20 17:33N 40°41' W 074°02'1 1.5
2014-Jul-20 16:33N 40°42' W 074°00'0 0.0
2014-Jul-20 15:32N 40°42' W 074°00'2 2.0
2014-Jul-20 14:33N 40°41' W 074°02'2 2.0
2014-Jul-20 13:33N 40°42' W 074°00'1 0.1
2014-Jul-19 22:33N 40°43' W 074°01'2 1.7
2014-Jul-19 21:33N 40°41' W 074°02'  
Track history (hours):
 
Tides and Currents Weather Stations Pressure Air Temp Water Temp Dewpoint Dewpoint Depression Visibility Wind Speed Wind Dir Waves Ship Positions

John James Audubon

More information available from US FCC via Universal Licensing System and Coast Guard Vessel Documentation Center.

Last reported at 2014-Jul-29 21:04 UTC. Time now 2014-Jul-29 22:58 UTC.
Position N 40°44' W 074°01'.

Length 37 m.

Type: Ship. MMSI: 367400770.

Date/timePositionNaut miles runAvg speedWind from/ knotsBaromVisibWave heightAir tempDewpointWater temp
2014-Jul-29 21:04N 40°44' W 074°01'2 3.3
2014-Jul-29 20:33N 40°42' W 074°00'0 0.0
2014-Jul-29 19:33N 40°42' W 074°00'0 0.0
2014-Jul-29 18:33N 40°42' W 074°00'2 1.9
2014-Jul-29 17:33N 40°41' W 074°02'2 2.0
2014-Jul-29 16:33N 40°42' W 074°00'0 0.1
2014-Jul-29 15:33N 40°42' W 074°00'2 1.8
2014-Jul-29 14:33N 40°41' W 074°02'2 1.8
2014-Jul-29 13:33N 40°43' W 074°01'1 0.1
2014-Jul-28 19:33N 40°42' W 074°00'0 0.5
2014-Jul-28 18:33N 40°42' W 074°01'1 0.8
2014-Jul-28 17:33N 40°42' W 074°02'1 1.3
2014-Jul-28 16:33N 40°42' W 074°00'0 0.0
2014-Jul-28 15:33N 40°42' W 074°00'2 1.7
2014-Jul-28 14:33N 40°41' W 074°02'1 1.1
2014-Jul-28 13:33N 40°42' W 074°01'2 0.2
2014-Jul-28 01:33N 40°44' W 074°01'2 2.4
2014-Jul-28 00:34N 40°42' W 074°02'0 0.1
2014-Jul-27 19:33N 40°42' W 074°01'1 0.6
2014-Jul-27 18:33N 40°42' W 074°00'2 1.7
2014-Jul-27 17:33N 40°41' W 074°02'2 1.8
2014-Jul-27 16:33N 40°42' W 074°00'0 0.1
2014-Jul-27 15:32N 40°42' W 074°00'1 1.3
2014-Jul-27 14:33N 40°42' W 074°02'1 1.2
2014-Jul-27 13:33N 40°42' W 074°00'0 0.0
2014-Jul-27 04:34N 40°42' W 074°00'0 0.0
2014-Jul-27 03:34N 40°42' W 074°00'3 3.2
2014-Jul-27 02:30N 40°46' W 074°01'3 1.4
2014-Jul-27 00:05N 40°42' W 074°00'1 1.3
2014-Jul-26 23:33N 40°42' W 073°59'2 1.9
2014-Jul-26 22:33N 40°44' W 074°01'2 1.6
2014-Jul-26 21:33N 40°42' W 074°00'1 0.3
2014-Jul-26 18:33N 40°43' W 074°01'1 1.5
2014-Jul-26 17:33N 40°41' W 074°02'2 1.8
2014-Jul-26 16:33N 40°42' W 074°00'0 0.1
2014-Jul-26 15:33N 40°42' W 074°00'1 1.2
2014-Jul-26 14:33N 40°42' W 074°02'1 0.7
2014-Jul-26 13:33N 40°42' W 074°01'2 0.2
2014-Jul-26 05:06N 40°44' W 074°01'2 3.1
2014-Jul-26 04:33N 40°42' W 074°00'1 1.1
2014-Jul-26 03:33N 40°43' W 074°01'1 1.3
2014-Jul-26 02:33N 40°42' W 073°60'1 0.7
2014-Jul-26 01:33N 40°42' W 073°59'1 1.1
2014-Jul-26 00:33N 40°42' W 074°00'1 1.3
2014-Jul-25 23:33N 40°42' W 074°02'3 3.3
2014-Jul-25 22:33N 40°44' W 073°58'2 2.0
2014-Jul-25 21:32N 40°42' W 074°00'0 0.0
2014-Jul-25 20:33N 40°42' W 074°00'0 0.0
2014-Jul-25 19:30N 40°42' W 074°00'0 0.0
2014-Jul-25 18:33N 40°42' W 074°00'1 0.8
2014-Jul-25 17:33N 40°42' W 074°01'1 0.8
2014-Jul-25 16:33N 40°42' W 074°00'0 0.2
2014-Jul-25 15:33N 40°42' W 074°00'2 1.5
2014-Jul-25 14:33N 40°41' W 074°02'1 1.4
2014-Jul-25 13:33N 40°43' W 074°01'1 0.1
2014-Jul-24 22:33N 40°44' W 074°01'3 2.5
2014-Jul-24 21:33N 40°41' W 074°02'2 2.0
2014-Jul-24 20:33N 40°42' W 074°00'0 0.1
2014-Jul-24 19:33N 40°42' W 074°00'1 1.3
2014-Jul-24 18:33N 40°42' W 074°02'1 1.3
2014-Jul-24 17:33N 40°42' W 074°00'0 0.1
2014-Jul-24 16:33N 40°42' W 074°00'1 1.1
2014-Jul-24 15:33N 40°42' W 074°01'1 1.1
2014-Jul-24 14:33N 40°42' W 074°00'0 0.0
2014-Jul-24 13:33N 40°42' W 074°00'0 0.0
2014-Jul-23 19:33N 40°42' W 074°00'0 0.0
2014-Jul-23 18:33N 40°42' W 074°00'2 1.7
2014-Jul-23 17:33N 40°41' W 074°02'2 1.7
2014-Jul-23 16:33N 40°42' W 074°00'0 0.0
2014-Jul-23 15:33N 40°42' W 074°00'2 2.1
2014-Jul-23 14:33N 40°41' W 074°03'2 2.1
2014-Jul-23 13:33N 40°42' W 074°00'3 0.2
2014-Jul-23 02:33N 40°45' W 074°01'3 3.2
2014-Jul-23 01:33N 40°42' W 074°02'2 0.3
2014-Jul-22 19:33N 40°42' W 074°00'1 1.0
2014-Jul-22 18:33N 40°42' W 074°01'1 1.0
2014-Jul-22 17:33N 40°42' W 074°00'0 0.0
2014-Jul-22 16:33N 40°42' W 074°00'1 0.9
2014-Jul-22 15:33N 40°42' W 074°01'1 0.9
2014-Jul-22 14:33N 40°42' W 074°00'0 0.0
2014-Jul-22 13:33N 40°42' W 074°00'2 0.1
2014-Jul-21 22:27N 40°44' W 074°01'2 2.7
2014-Jul-21 21:33N 40°41' W 074°02'2 1.8
2014-Jul-21 20:33N 40°42' W 074°00'0 0.0
2014-Jul-21 20:18N 40°42' W 074°00'2 2.7
2014-Jul-21 19:33N 40°41' W 074°02'2 2.0
2014-Jul-21 18:33N 40°42' W 074°00'0 0.3
2014-Jul-21 17:33N 40°42' W 074°00'0 0.2
2014-Jul-21 16:33N 40°42' W 074°01'1 0.5
2014-Jul-21 15:33N 40°42' W 074°00'2 0.1
2014-Jul-21 01:33N 40°44' W 074°01'2 2.4
2014-Jul-21 00:33N 40°42' W 074°02'2 0.3
2014-Jul-20 19:33N 40°42' W 074°00'0 0.0
2014-Jul-20 18:31N 40°42' W 074°00'1 1.6
2014-Jul-20 17:33N 40°41' W 074°02'1 1.5
2014-Jul-20 16:33N 40°42' W 074°00'0 0.0
2014-Jul-20 15:32N 40°42' W 074°00'2 2.0
2014-Jul-20 14:33N 40°41' W 074°02'2 2.0
2014-Jul-20 13:33N 40°42' W 074°00'1 0.1
2014-Jul-19 22:33N 40°43' W 074°01'2 1.7
2014-Jul-19 21:33N 40°41' W 074°02'  

Dump ship's entire track history